createdAt,value
2019-06-07T00:02:13.352Z,54.60
2019-06-07T00:04:40.707Z,54.30
2019-06-07T00:07:09.046Z,54.40
2019-06-07T00:09:34.683Z,54.60
2019-06-07T00:12:00.709Z,55.20
2019-06-07T00:14:26.733Z,55.70
2019-06-07T00:16:52.832Z,55.60
2019-06-07T00:19:19.173Z,56.10
2019-06-07T00:24:15.896Z,56.70
2019-06-07T00:26:57.758Z,56.50
2019-06-07T00:29:11.755Z,56.70
2019-06-07T00:31:37.331Z,56.80
2019-06-07T00:34:03.377Z,56.60
2019-06-07T00:36:29.473Z,57.00
2019-06-07T00:38:56.028Z,56.90
2019-06-07T00:41:22.397Z,56.80
2019-06-07T00:43:48.555Z,56.70
2019-06-07T00:46:16.550Z,56.60
2019-06-07T00:48:42.941Z,56.50
2019-06-07T00:51:08.939Z,56.50
2019-06-07T00:53:35.069Z,56.40
2019-06-07T00:56:01.085Z,55.80
2019-06-07T00:58:29.235Z,56.10
2019-06-07T01:00:55.549Z,55.80
2019-06-07T01:03:25.258Z,55.50
2019-06-07T01:05:49.501Z,55.50
2019-06-07T01:08:18.285Z,55.30
2019-06-07T01:10:59.329Z,55.30
2019-06-07T01:13:11.919Z,55.30
2019-06-07T01:15:37.976Z,54.80
2019-06-07T01:20:32.196Z,54.80
2019-06-07T01:22:58.235Z,54.80
2019-06-07T01:25:26.118Z,54.50
2019-06-07T01:27:52.163Z,54.40
2019-06-07T01:30:18.775Z,55.00
2019-06-07T01:32:45.671Z,54.70
2019-06-07T01:35:11.687Z,54.40
2019-06-07T01:37:37.819Z,54.30
2019-06-07T01:40:05.900Z,55.00
2019-06-07T01:42:31.909Z,54.80
2019-06-07T01:44:57.981Z,55.10
2019-06-07T01:47:25.564Z,54.90
2019-06-07T01:49:52.311Z,54.60
2019-06-07T01:52:19.555Z,54.20
2019-06-07T01:54:57.807Z,54.50
2019-06-07T01:57:31.031Z,55.00
2019-06-07T01:59:42.187Z,54.60
2019-06-07T02:02:08.568Z,54.60
2019-06-07T02:04:34.591Z,54.80
2019-06-07T02:07:00.635Z,55.20
2019-06-07T02:09:30.148Z,55.10
2019-06-07T02:11:54.903Z,55.10
2019-06-07T02:14:23.778Z,55.60
2019-06-07T02:16:48.858Z,55.40
2019-06-07T02:19:14.878Z,55.10
2019-06-07T02:21:40.921Z,54.60
2019-06-07T02:24:07.286Z,55.50
2019-06-07T02:26:33.308Z,55.50
2019-06-07T02:28:59.540Z,56.00
2019-06-07T02:31:28.675Z,56.00
2019-06-07T02:33:53.483Z,56.10
2019-06-07T02:36:19.520Z,56.00
2019-06-07T02:38:45.534Z,55.70
2019-06-07T02:41:11.825Z,56.00
2019-06-07T02:43:39.804Z,56.10
2019-06-07T02:46:34.218Z,56.40
2019-06-07T02:48:53.332Z,56.50
2019-06-07T02:51:19.647Z,56.80
2019-06-07T02:53:45.995Z,56.90
2019-06-07T02:56:37.417Z,57.10
2019-06-07T02:58:41.713Z,57.30
2019-06-07T03:01:09.646Z,57.40
2019-06-07T03:03:39.685Z,57.40
2019-06-07T03:06:04.687Z,58.40
2019-06-07T03:08:33.653Z,58.00
2019-06-07T03:10:58.827Z,58.10
2019-06-07T03:13:28.499Z,58.60
2019-06-07T03:15:54.949Z,58.80
2019-06-07T03:18:41.573Z,59.30
2019-06-07T03:21:08.547Z,60.00
2019-06-07T03:23:36.184Z,60.00
2019-06-07T03:26:05.127Z,59.70
2019-06-07T03:28:34.718Z,60.20
2019-06-07T03:31:02.676Z,59.80
2019-06-07T03:33:29.228Z,59.80
2019-06-07T03:35:55.175Z,59.60
2019-06-07T03:38:21.302Z,59.70
2019-06-07T03:40:47.956Z,60.00
2019-06-07T03:43:13.963Z,60.10
2019-06-07T03:45:41.505Z,60.80
2019-06-07T03:48:07.908Z,60.00
2019-06-07T03:50:38.321Z,60.00
2019-06-07T03:53:02.137Z,60.00
2019-06-07T03:55:30.213Z,60.10
2019-06-07T04:00:24.267Z,60.70
2019-06-07T04:02:50.291Z,60.80
2019-06-07T04:05:16.305Z,60.70
2019-06-07T04:07:44.271Z,60.70
2019-06-07T04:10:10.655Z,60.70
2019-06-07T04:12:39.978Z,60.70
2019-06-07T04:15:04.584Z,61.00
2019-06-07T04:17:32.695Z,60.70
2019-06-07T04:19:58.943Z,60.90
2019-06-07T04:22:24.968Z,60.60
2019-06-07T04:24:51.038Z,60.30
2019-06-07T04:27:17.119Z,60.00
2019-06-07T04:30:05.842Z,60.00
2019-06-07T04:32:11.099Z,60.30
2019-06-07T04:34:40.143Z,60.00
2019-06-07T04:37:05.143Z,60.00
2019-06-07T04:39:34.028Z,60.40
2019-06-07T04:41:59.499Z,60.00
2019-06-07T04:44:25.516Z,59.60
2019-06-07T04:46:51.555Z,59.50
2019-06-07T04:49:18.676Z,59.70
2019-06-07T04:51:44.884Z,58.70
2019-06-07T04:54:12.843Z,58.00
2019-06-07T04:56:43.740Z,58.20
2019-06-07T04:59:06.771Z,58.10
2019-06-07T05:01:34.360Z,57.80
2019-06-07T05:04:00.759Z,57.10
2019-06-07T05:06:26.780Z,56.70
2019-06-07T05:08:52.815Z,55.80
2019-06-07T05:11:18.838Z,54.00
2019-06-07T05:13:44.845Z,53.70
2019-06-07T05:16:11.955Z,53.10
2019-06-07T05:18:42.624Z,52.00
2019-06-07T05:21:06.206Z,52.30
2019-06-07T05:26:00.240Z,51.80
2019-06-07T05:28:26.253Z,51.90
2019-06-07T05:31:08.191Z,52.30
2019-06-07T05:33:20.192Z,51.30
2019-06-07T05:35:46.203Z,51.00
2019-06-07T05:38:12.229Z,51.10
2019-06-07T05:40:48.113Z,49.70
2019-06-07T05:43:22.475Z,49.80
2019-06-07T05:45:48.488Z,49.20
2019-06-07T05:48:14.503Z,48.90
2019-06-07T05:50:55.384Z,49.70
2019-06-07T05:53:09.625Z,48.30
2019-06-07T05:55:37.677Z,47.60
2019-06-07T05:58:03.655Z,46.90
2019-06-07T06:00:29.663Z,45.90
2019-06-07T06:03:05.304Z,42.90
2019-06-07T06:05:34.325Z,43.60
2019-06-07T06:07:53.442Z,43.10
2019-06-07T06:10:19.546Z,43.90
2019-06-07T06:12:51.482Z,43.40
2019-06-07T06:15:14.156Z,43.10
2019-06-07T06:17:42.795Z,42.10
2019-06-07T06:20:08.313Z,42.10
2019-06-07T06:22:34.334Z,42.10
2019-06-07T06:25:31.008Z,42.30
2019-06-07T06:28:03.509Z,42.20
2019-06-07T06:29:56.210Z,42.30
2019-06-07T06:34:53.637Z,43.00
2019-06-07T06:37:18.475Z,42.50
2019-06-07T06:39:46.583Z,39.20
2019-06-07T06:42:12.509Z,38.80
2019-06-07T06:44:40.747Z,39.50
2019-06-07T06:47:06.490Z,39.60
2019-06-07T06:49:34.656Z,39.30
2019-06-07T06:52:00.927Z,38.80
2019-06-07T06:54:39.913Z,39.20
2019-06-07T06:57:17.300Z,38.30
2019-06-07T06:59:38.073Z,38.30
2019-06-07T07:01:52.607Z,38.00
2019-06-07T07:04:18.685Z,38.60
2019-06-07T07:06:45.548Z,37.30
2019-06-07T07:09:12.004Z,36.50
2019-06-07T07:11:52.498Z,35.50
2019-06-07T07:14:06.538Z,36.50
2019-06-07T07:16:32.536Z,35.10
2019-06-07T07:18:58.910Z,34.90
2019-06-07T07:21:24.949Z,34.30
2019-06-07T07:24:12.349Z,34.20
2019-06-07T07:26:19.046Z,35.10
2019-06-07T07:28:46.619Z,36.20
2019-06-07T07:31:13.036Z,35.80
2019-06-07T07:36:23.108Z,33.10
2019-06-07T07:38:35.879Z,32.40
2019-06-07T07:41:14.075Z,30.40
2019-06-07T07:43:29.905Z,31.60
2019-06-07T07:46:02.199Z,32.50
2019-06-07T07:48:24.961Z,33.10
2019-06-07T07:50:56.187Z,33.30
2019-06-07T07:53:19.407Z,33.40
2019-06-07T07:55:49.478Z,34.00
2019-06-07T07:58:13.406Z,32.90
2019-06-07T08:01:09.021Z,30.50
2019-06-07T08:03:07.819Z,30.20
2019-06-07T08:05:42.944Z,30.50
2019-06-07T08:08:05.186Z,30.50
2019-06-07T08:10:30.230Z,30.60
2019-06-07T08:13:22.070Z,29.40
2019-06-07T08:15:24.321Z,30.10
2019-06-07T08:17:55.492Z,29.50
2019-06-07T08:20:23.987Z,29.90
2019-06-07T08:22:50.099Z,30.00
2019-06-07T08:25:16.151Z,29.90
2019-06-07T08:27:42.181Z,30.30
2019-06-07T08:30:46.633Z,30.60
2019-06-07T08:32:37.270Z,30.60
2019-06-07T08:35:07.171Z,29.30
2019-06-07T08:40:15.912Z,29.10
2019-06-07T08:43:04.496Z,29.10
2019-06-07T08:45:11.305Z,28.80
2019-06-07T08:47:37.406Z,28.80
2019-06-07T08:50:07.907Z,28.90
2019-06-07T08:52:36.460Z,28.80
2019-06-07T08:55:05.090Z,28.90
2019-06-07T08:57:35.674Z,27.40
2019-06-07T09:00:29.438Z,27.70
2019-06-07T09:02:34.327Z,27.70
2019-06-07T09:05:11.155Z,27.80
2019-06-07T09:07:28.282Z,28.70
2019-06-07T09:10:01.846Z,28.20
2019-06-07T09:12:24.264Z,27.70
2019-06-07T09:15:06.885Z,27.30
2019-06-07T09:17:18.264Z,28.00
2019-06-07T09:19:44.382Z,28.10
2019-06-07T09:22:13.191Z,29.00
2019-06-07T09:24:39.363Z,28.80
2019-06-07T09:27:07.764Z,27.80
2019-06-07T09:29:34.569Z,28.80
2019-06-07T09:32:09.684Z,27.80
2019-06-07T09:34:28.605Z,28.40
2019-06-07T09:36:58.140Z,28.30
2019-06-07T09:39:22.693Z,27.30
2019-06-07T09:41:50.490Z,28.40
2019-06-07T09:44:24.733Z,27.70
2019-06-07T09:46:44.767Z,28.00
2019-06-07T09:49:27.703Z,25.70
2019-06-07T09:51:38.695Z,27.40
2019-06-07T09:54:08.252Z,27.80
2019-06-07T09:56:32.735Z,26.20
2019-06-07T09:59:01.693Z,27.10
2019-06-07T10:01:26.679Z,25.20
2019-06-07T10:03:52.697Z,25.30
2019-06-07T10:06:18.709Z,25.40
2019-06-07T10:11:12.659Z,24.60
2019-06-07T10:13:38.723Z,25.00
2019-06-07T10:16:05.135Z,23.60
2019-06-07T10:18:31.249Z,24.60
2019-06-07T10:20:57.260Z,23.30
2019-06-07T10:23:23.699Z,23.10
2019-06-07T10:25:49.718Z,21.60
2019-06-07T10:28:15.728Z,22.60
2019-06-07T10:30:41.862Z,21.70
2019-06-07T10:33:08.586Z,20.30
2019-06-07T10:35:34.959Z,19.30
2019-06-07T10:38:02.398Z,17.60
2019-06-07T10:40:28.703Z,15.30
2019-06-07T10:42:54.861Z,13.60
2019-06-07T10:45:20.949Z,12.70
2019-06-07T10:47:47.022Z,12.60
2019-06-07T10:50:13.096Z,12.40
2019-06-07T10:52:39.474Z,11.90
2019-06-07T10:55:06.853Z,10.10
2019-06-07T10:57:33.240Z,7.80
2019-06-07T10:59:59.407Z,6.20
2019-06-07T11:02:25.433Z,5.10
2019-06-07T11:04:51.716Z,4.50
2019-06-07T11:07:18.594Z,3.90
2019-06-07T11:09:44.613Z,3.00
2019-06-07T11:12:10.877Z,2.30
2019-06-07T11:14:42.002Z,2.20
2019-06-07T11:17:09.355Z,2.70
2019-06-07T11:19:35.439Z,3.20
2019-06-07T11:22:01.544Z,2.80
2019-06-07T11:24:27.582Z,2.40
2019-06-07T11:26:53.615Z,2.30
2019-06-07T11:29:22.848Z,2.40
2019-06-07T11:31:49.151Z,2.00
2019-06-07T11:34:17.081Z,2.10
2019-06-07T11:36:43.382Z,1.80
2019-06-07T11:39:10.950Z,1.60
2019-06-07T11:41:42.756Z,1.40
2019-06-07T11:44:08.921Z,1.70
2019-06-07T11:46:34.981Z,1.20
2019-06-07T11:49:01.085Z,1.50
2019-06-07T11:51:27.248Z,1.50
2019-06-07T11:53:53.270Z,1.20
2019-06-07T11:56:19.645Z,1.00
2019-06-07T11:58:45.697Z,1.00
2019-06-07T12:01:11.902Z,1.30
2019-06-07T12:03:38.450Z,1.10
2019-06-07T12:06:08.240Z,1.00
2019-06-07T12:08:34.484Z,1.30
2019-06-07T12:11:00.504Z,1.20
2019-06-07T12:13:27.756Z,1.50
2019-06-07T12:15:53.877Z,1.40
2019-06-07T12:18:19.907Z,1.00
2019-06-07T12:20:45.947Z,1.70
2019-06-07T12:23:12.057Z,1.40
2019-06-07T12:25:38.202Z,1.00
2019-06-07T12:28:04.337Z,1.00
2019-06-07T12:30:30.364Z,1.00
2019-06-07T12:32:56.387Z,1.00
2019-06-07T12:35:22.428Z,1.00
2019-06-07T12:37:48.808Z,1.00
2019-06-07T12:40:26.550Z,1.00
2019-06-07T12:42:44.624Z,1.00
2019-06-07T12:45:10.936Z,1.10
2019-06-07T12:47:36.955Z,1.10
2019-06-07T12:50:06.463Z,1.20
2019-06-07T12:52:32.539Z,1.30
2019-06-07T12:54:58.554Z,1.10
2019-06-07T12:57:25.091Z,1.10
2019-06-07T12:59:51.157Z,1.00
2019-06-07T13:02:20.048Z,1.00
2019-06-07T13:04:48.610Z,1.00
2019-06-07T13:07:15.781Z,1.00
2019-06-07T13:09:41.847Z,1.00
2019-06-07T13:12:10.817Z,1.00
2019-06-07T13:14:36.906Z,1.00
2019-06-07T13:17:03.065Z,1.00
2019-06-07T13:19:39.077Z,1.00
2019-06-07T13:22:05.132Z,1.00
2019-06-07T13:24:31.171Z,1.00
2019-06-07T13:27:07.189Z,1.00
2019-06-07T13:29:44.221Z,1.00
2019-06-07T13:32:14.038Z,1.00
2019-06-07T13:34:40.516Z,1.00
2019-06-07T13:37:06.537Z,1.00
2019-06-07T13:39:32.658Z,1.00
2019-06-07T13:42:01.371Z,1.00
2019-06-07T13:44:29.338Z,1.00
2019-06-07T13:46:55.645Z,1.00
2019-06-07T13:49:21.656Z,1.00
2019-06-07T13:51:47.715Z,1.00
2019-06-07T13:54:13.817Z,1.00
2019-06-07T13:57:00.848Z,1.00
2019-06-07T13:59:07.979Z,1.00
2019-06-07T14:01:34.022Z,1.00
2019-06-07T14:04:00.151Z,1.00
2019-06-07T14:06:28.089Z,1.00
2019-06-07T14:08:54.096Z,1.00
2019-06-07T14:11:21.216Z,1.00
2019-06-07T14:13:47.559Z,1.00
2019-06-07T14:16:13.987Z,1.00
2019-06-07T14:18:40.168Z,1.00
2019-06-07T14:21:06.475Z,1.00
2019-06-07T14:23:45.873Z,1.00
2019-06-07T14:26:00.625Z,1.00
2019-06-07T14:28:30.164Z,1.00
2019-06-07T14:30:55.075Z,1.00
2019-06-07T14:33:23.664Z,1.00
2019-06-07T14:35:49.011Z,1.00
2019-06-07T14:38:15.129Z,1.00
2019-06-07T14:40:44.474Z,1.00
2019-06-07T14:43:10.515Z,1.00
2019-06-07T14:45:36.966Z,1.00
2019-06-07T14:48:03.025Z,1.00
2019-06-07T14:50:30.279Z,1.10
2019-06-07T14:52:57.013Z,1.20
2019-06-07T14:55:23.034Z,1.40
2019-06-07T14:57:49.112Z,1.20
2019-06-07T15:00:15.288Z,1.10
2019-06-07T15:02:41.295Z,1.20
2019-06-07T15:05:07.331Z,1.20
2019-06-07T15:07:34.794Z,1.10
2019-06-07T15:10:01.004Z,1.20
2019-06-07T15:12:27.532Z,1.40
2019-06-07T15:14:54.369Z,1.50
2019-06-07T15:17:23.463Z,1.10
2019-06-07T15:19:54.828Z,1.00
2019-06-07T15:22:20.955Z,1.40
2019-06-07T15:24:46.951Z,2.00
2019-06-07T15:27:12.967Z,1.40
2019-06-07T15:29:39.171Z,1.60
2019-06-07T15:32:05.235Z,1.80
2019-06-07T15:34:32.383Z,1.60
2019-06-07T15:36:58.652Z,2.50
2019-06-07T15:39:24.696Z,2.40
2019-06-07T15:41:51.345Z,2.40
2019-06-07T15:44:17.381Z,2.70
2019-06-07T15:46:43.389Z,2.80
2019-06-07T15:49:09.747Z,2.90
2019-06-07T15:51:36.768Z,3.10
2019-06-07T15:54:03.077Z,3.00
2019-06-07T15:56:30.485Z,3.00
2019-06-07T15:58:56.646Z,3.00
2019-06-07T16:01:22.947Z,3.50
2019-06-07T16:03:49.001Z,3.40
2019-06-07T16:06:15.017Z,3.40
2019-06-07T16:08:44.854Z,3.40
2019-06-07T16:11:11.293Z,3.40
2019-06-07T16:13:37.324Z,3.40
2019-06-07T16:16:03.421Z,3.40
2019-06-07T16:18:29.628Z,3.70
2019-06-07T16:20:55.639Z,3.40
2019-06-07T16:23:21.673Z,3.70
2019-06-07T16:25:48.787Z,3.80
2019-06-07T16:28:14.815Z,4.40
2019-06-07T16:30:40.828Z,5.40
2019-06-07T16:33:08.600Z,6.30
2019-06-07T16:35:34.894Z,7.10
2019-06-07T16:38:01.205Z,8.00
2019-06-07T16:40:27.310Z,9.00
2019-06-07T16:42:53.998Z,9.70
2019-06-07T16:45:20.103Z,10.20
2019-06-07T16:47:47.769Z,11.10
2019-06-07T16:50:14.073Z,11.40
2019-06-07T16:52:41.557Z,12.20
2019-06-07T16:55:09.355Z,13.20
2019-06-07T16:57:36.572Z,13.60
2019-06-07T17:00:08.292Z,13.60
2019-06-07T17:02:34.467Z,14.00
2019-06-07T17:05:00.476Z,14.20
2019-06-07T17:07:26.513Z,14.40
2019-06-07T17:09:52.640Z,14.60
2019-06-07T17:12:19.031Z,14.90
2019-06-07T17:14:46.545Z,15.00
2019-06-07T17:17:12.757Z,15.50
2019-06-07T17:19:38.859Z,16.20
2019-06-07T17:22:04.955Z,15.80
2019-06-07T17:24:31.121Z,15.60
2019-06-07T17:26:57.139Z,16.00
2019-06-07T17:29:23.160Z,15.90
2019-06-07T17:31:50.371Z,16.50
2019-06-07T17:34:16.615Z,17.10
2019-06-07T17:36:42.631Z,16.90
2019-06-07T17:39:08.748Z,16.80
2019-06-07T17:41:50.515Z,16.80
2019-06-07T17:44:05.241Z,16.90
2019-06-07T17:46:31.462Z,17.00
2019-06-07T17:48:57.772Z,17.40
2019-06-07T17:51:23.886Z,17.40
2019-06-07T17:53:50.054Z,17.60
2019-06-07T17:56:19.018Z,18.20
2019-06-07T17:58:46.402Z,18.20
2019-06-07T18:01:12.675Z,18.80
2019-06-07T18:03:45.138Z,18.80
2019-06-07T18:06:12.308Z,18.90
2019-06-07T18:08:38.499Z,19.00
2019-06-07T18:11:04.519Z,18.90
2019-06-07T18:13:33.270Z,19.10
2019-06-07T18:15:59.893Z,19.40
2019-06-07T18:18:26.123Z,19.50
2019-06-07T18:20:53.366Z,19.40
2019-06-07T18:23:19.920Z,19.70
2019-06-07T18:25:50.656Z,19.90
2019-06-07T18:28:16.809Z,19.90
2019-06-07T18:30:42.879Z,19.90
2019-06-07T18:33:08.896Z,20.00
2019-06-07T18:35:34.962Z,20.00
2019-06-07T18:38:01.063Z,20.20
2019-06-07T18:40:27.125Z,21.00
2019-06-07T18:42:55.163Z,21.00
2019-06-07T18:45:21.400Z,21.90
2019-06-07T18:47:47.842Z,23.50
2019-06-07T18:50:14.438Z,24.70
2019-06-07T18:52:48.640Z,25.70
2019-06-07T18:55:14.840Z,26.20
2019-06-07T18:57:50.391Z,26.90
2019-06-07T19:00:19.315Z,27.40
2019-06-07T19:02:45.337Z,28.40
2019-06-07T19:05:12.090Z,29.00
2019-06-07T19:07:38.421Z,29.40
2019-06-07T19:10:06.651Z,29.80
2019-06-07T19:12:35.453Z,30.40
2019-06-07T19:15:02.108Z,31.00
2019-06-07T19:17:28.133Z,31.10
2019-06-07T19:19:58.265Z,31.50
2019-06-07T19:22:24.581Z,32.20
2019-06-07T19:24:52.016Z,32.40
2019-06-07T19:27:18.448Z,33.10
2019-06-07T19:29:44.464Z,33.00
2019-06-07T19:32:10.579Z,33.90
2019-06-07T19:34:36.633Z,34.20
2019-06-07T19:37:02.657Z,35.00
2019-06-07T19:39:30.951Z,34.40
2019-06-07T19:41:57.994Z,34.70
2019-06-07T19:44:25.908Z,35.10
2019-06-07T19:46:52.254Z,35.20
2019-06-07T19:49:18.675Z,35.10
2019-06-07T19:51:44.753Z,36.10
2019-06-07T19:54:24.819Z,36.50
2019-06-07T19:57:05.202Z,37.10
2019-06-07T19:59:40.443Z,37.20
2019-06-07T20:02:06.543Z,37.70
2019-06-07T20:04:35.355Z,37.90
2019-06-07T20:07:03.978Z,38.10
2019-06-07T20:09:32.589Z,38.70
2019-06-07T20:11:58.685Z,38.90
2019-06-07T20:14:24.695Z,38.80
2019-06-07T20:16:50.762Z,38.70
2019-06-07T20:19:16.787Z,39.80
2019-06-07T20:21:42.822Z,39.90
2019-06-07T20:24:26.297Z,40.20
2019-06-07T20:26:39.583Z,40.80
2019-06-07T20:29:05.765Z,41.10
2019-06-07T20:31:32.473Z,41.30
2019-06-07T20:33:58.741Z,41.00
2019-06-07T20:36:24.846Z,41.50
2019-06-07T20:38:51.720Z,41.90
2019-06-07T20:41:17.887Z,41.20
2019-06-07T20:43:44.013Z,41.40
2019-06-07T20:46:11.076Z,41.70
2019-06-07T20:48:37.102Z,41.80
2019-06-07T20:51:04.574Z,41.90
2019-06-07T20:53:32.971Z,42.40
2019-06-07T20:55:58.984Z,42.90
2019-06-07T20:58:25.013Z,45.10
2019-06-07T21:00:51.639Z,47.70
2019-06-07T21:03:17.953Z,49.70
2019-06-07T21:05:44.371Z,51.00
2019-06-07T21:08:12.813Z,52.00
2019-06-07T21:10:38.327Z,53.20
2019-06-07T21:13:04.351Z,54.70
2019-06-07T21:15:30.385Z,60.00
2019-06-07T21:17:56.404Z,60.40
2019-06-07T21:20:22.426Z,60.00
2019-06-07T21:22:48.519Z,64.40
2019-06-07T21:25:14.540Z,65.30
2019-06-07T21:27:40.560Z,66.30
2019-06-07T21:30:07.601Z,67.90
2019-06-07T21:32:33.609Z,70.60
2019-06-07T21:34:59.643Z,73.70
2019-06-07T21:37:26.607Z,75.30
2019-06-07T21:39:52.622Z,78.90
2019-06-07T21:42:18.643Z,77.90
2019-06-07T21:44:45.135Z,80.30
2019-06-07T21:47:11.384Z,82.00
2019-06-07T21:49:37.948Z,81.70
2019-06-07T21:52:06.470Z,81.00
2019-06-07T21:54:32.652Z,82.00
2019-06-07T21:56:58.687Z,83.10
2019-06-07T21:59:24.721Z,83.60
2019-06-07T22:01:50.733Z,84.00
2019-06-07T22:04:16.788Z,83.70
2019-06-07T22:06:42.918Z,82.80
2019-06-07T22:09:09.942Z,82.30
2019-06-07T22:11:36.168Z,83.80
2019-06-07T22:14:04.199Z,84.60
2019-06-07T22:16:32.961Z,85.20
2019-06-07T22:18:59.451Z,84.40
2019-06-07T22:21:27.853Z,85.10
2019-06-07T22:23:53.879Z,85.00
2019-06-07T22:26:19.898Z,83.60
2019-06-07T22:28:46.233Z,86.10
2019-06-07T22:31:12.807Z,85.60
2019-06-07T22:33:38.959Z,86.80
2019-06-07T22:36:05.063Z,87.40
2019-06-07T22:38:31.148Z,87.10
2019-06-07T22:40:57.165Z,87.40
2019-06-07T22:43:23.374Z,87.60
2019-06-07T22:45:49.427Z,87.80
2019-06-07T22:48:15.960Z,87.90
2019-06-07T22:50:42.272Z,88.60
2019-06-07T22:53:09.388Z,88.10
2019-06-07T22:55:35.593Z,88.30
2019-06-07T22:58:01.611Z,88.50
2019-06-07T23:00:29.520Z,88.70
2019-06-07T23:02:55.534Z,88.70
2019-06-07T23:05:21.727Z,88.90
2019-06-07T23:07:47.740Z,88.80
2019-06-07T23:10:15.390Z,88.80
2019-06-07T23:12:41.840Z,87.10
2019-06-07T23:15:09.353Z,87.10
2019-06-07T23:17:35.531Z,86.30
2019-06-07T23:20:03.870Z,87.90
2019-06-07T23:22:29.957Z,87.90
2019-06-07T23:24:56.396Z,87.70
2019-06-07T23:27:22.425Z,88.10
2019-06-07T23:29:48.443Z,88.40
2019-06-07T23:32:14.787Z,88.40
2019-06-07T23:34:40.811Z,87.40
2019-06-07T23:37:06.832Z,87.80
2019-06-07T23:39:32.844Z,88.50
2019-06-07T23:41:58.955Z,88.20
2019-06-07T23:44:25.004Z,88.10
2019-06-07T23:46:51.028Z,87.50
2019-06-07T23:49:17.638Z,86.50
2019-06-07T23:51:43.719Z,85.10
2019-06-07T23:54:09.731Z,85.60
2019-06-07T23:56:35.899Z,85.90
2019-06-07T23:59:01.995Z,84.80
